createdAt,value
2018-08-04T00:01:44.349Z,7.20
2018-08-04T00:04:13.446Z,8.10
2018-08-04T00:06:42.560Z,7.70
2018-08-04T00:09:13.177Z,7.77
2018-08-04T00:11:42.666Z,8.20
2018-08-04T00:14:12.030Z,7.93
2018-08-04T00:16:41.185Z,7.50
2018-08-04T00:19:10.322Z,8.17
2018-08-04T00:21:39.418Z,7.83
2018-08-04T00:24:08.542Z,7.67
2018-08-04T00:26:37.637Z,7.97
2018-08-04T00:29:06.766Z,8.00
2018-08-04T00:31:35.874Z,7.63
2018-08-04T00:34:05.039Z,7.67
2018-08-04T00:36:34.153Z,8.07
2018-08-04T00:39:03.337Z,7.53
2018-08-04T00:41:32.445Z,7.60
2018-08-04T00:44:01.594Z,7.27
2018-08-04T00:46:30.723Z,7.80
2018-08-04T00:48:59.897Z,8.10
2018-08-04T00:51:29.021Z,7.57
2018-08-04T00:53:58.139Z,7.63
2018-08-04T00:56:27.249Z,8.10
2018-08-04T00:58:56.412Z,7.27
2018-08-04T01:01:25.506Z,8.13
2018-08-04T01:03:54.669Z,7.70
2018-08-04T01:06:23.787Z,7.97
2018-08-04T01:08:52.886Z,7.53
2018-08-04T01:11:21.997Z,7.23
2018-08-04T01:13:51.098Z,7.87
2018-08-04T01:16:20.213Z,6.50
2018-08-04T01:18:49.329Z,7.20
2018-08-04T01:21:18.453Z,7.40
2018-08-04T01:23:47.555Z,7.97
2018-08-04T01:26:16.658Z,7.80
2018-08-04T01:28:45.745Z,7.57
2018-08-04T01:31:14.868Z,7.37
2018-08-04T01:33:43.957Z,7.70
2018-08-04T01:36:13.094Z,7.33
2018-08-04T01:38:42.221Z,7.70
2018-08-04T01:41:11.337Z,7.87
2018-08-04T01:43:40.469Z,8.23
2018-08-04T01:46:09.585Z,7.97
2018-08-04T01:48:38.721Z,7.93
2018-08-04T01:51:07.833Z,8.23
2018-08-04T01:53:36.995Z,7.93
2018-08-04T01:56:06.085Z,7.80
2018-08-04T01:58:35.207Z,8.23
2018-08-04T02:01:04.332Z,8.83
2018-08-04T02:03:33.469Z,8.20
2018-08-04T02:06:02.581Z,8.57
2018-08-04T02:08:31.697Z,8.87
2018-08-04T02:11:00.814Z,7.67
2018-08-04T02:13:29.942Z,8.50
2018-08-04T02:15:59.053Z,8.67
2018-08-04T02:18:28.173Z,8.80
2018-08-04T02:20:57.294Z,8.27
2018-08-04T02:23:26.401Z,8.10
2018-08-04T02:25:55.493Z,8.90
2018-08-04T02:28:24.618Z,8.40
2018-08-04T02:30:53.744Z,8.27
2018-08-04T02:33:22.839Z,7.83
2018-08-04T02:35:51.947Z,7.90
2018-08-04T02:38:21.061Z,7.63
2018-08-04T02:40:50.230Z,8.23
2018-08-04T02:43:19.348Z,8.43
2018-08-04T02:45:48.457Z,8.57
2018-08-04T02:48:17.593Z,7.90
2018-08-04T02:50:46.682Z,8.17
2018-08-04T02:53:15.783Z,9.13
2018-08-04T02:55:44.914Z,8.40
2018-08-04T02:58:14.006Z,8.47
2018-08-04T03:00:43.131Z,8.13
2018-08-04T03:03:12.214Z,8.80
2018-08-04T03:05:41.538Z,8.33
2018-08-04T03:08:10.641Z,8.13
2018-08-04T03:10:39.742Z,8.10
2018-08-04T03:13:08.881Z,8.47
2018-08-04T03:15:38.005Z,8.17
2018-08-04T03:18:07.149Z,8.00
2018-08-04T03:20:36.261Z,8.23
2018-08-04T03:23:05.455Z,7.60
2018-08-04T03:25:34.617Z,8.00
2018-08-04T03:28:03.745Z,9.03
2018-08-04T03:30:32.873Z,8.13
2018-08-04T03:33:02.011Z,8.10
2018-08-04T03:35:31.109Z,7.37
2018-08-04T03:38:00.229Z,7.93
2018-08-04T03:40:29.374Z,8.20
2018-08-04T03:42:58.480Z,7.90
2018-08-04T03:45:27.616Z,7.40
2018-08-04T03:47:56.729Z,6.63
2018-08-04T03:50:25.881Z,7.37
2018-08-04T03:52:54.995Z,7.03
2018-08-04T03:55:24.109Z,7.43
2018-08-04T03:57:53.224Z,7.00
2018-08-04T04:00:22.313Z,7.13
2018-08-04T04:02:51.463Z,7.03
2018-08-04T04:05:20.559Z,7.30
2018-08-04T04:07:49.689Z,7.40
2018-08-04T04:10:18.817Z,7.40
2018-08-04T04:12:47.921Z,8.17
2018-08-04T04:15:17.064Z,7.47
2018-08-04T04:17:47.448Z,7.60
2018-08-04T04:20:18.303Z,7.23
2018-08-04T04:22:47.649Z,7.50
2018-08-04T04:25:16.800Z,6.80
2018-08-04T04:27:45.885Z,7.17
2018-08-04T04:30:15.465Z,7.07
2018-08-04T04:32:44.785Z,7.77
2018-08-04T04:35:13.905Z,7.47
2018-08-04T04:37:43.005Z,7.10
2018-08-04T04:40:12.154Z,7.50
2018-08-04T04:42:41.261Z,7.13
2018-08-04T04:45:10.393Z,7.17
2018-08-04T04:47:39.491Z,6.60
2018-08-04T04:50:08.624Z,6.63
2018-08-04T04:52:37.741Z,7.10
2018-08-04T04:55:06.889Z,7.33
2018-08-04T04:57:36.018Z,7.47
2018-08-04T05:00:05.385Z,7.00
2018-08-04T05:02:34.534Z,7.60
2018-08-04T05:05:03.689Z,7.77
2018-08-04T05:07:32.799Z,8.40
2018-08-04T05:10:01.925Z,7.80
2018-08-04T05:12:31.049Z,7.47
2018-08-04T05:15:00.183Z,7.20
2018-08-04T05:17:29.293Z,7.17
2018-08-04T05:19:58.385Z,6.70
2018-08-04T05:22:27.547Z,6.13
2018-08-04T05:24:57.100Z,6.57
2018-08-04T05:27:26.192Z,6.27
2018-08-04T05:29:55.297Z,6.20
2018-08-04T05:32:24.385Z,6.03
2018-08-04T05:34:53.527Z,5.93
2018-08-04T05:37:22.694Z,5.43
2018-08-04T05:39:51.786Z,6.00
2018-08-04T05:42:20.929Z,6.10
2018-08-04T05:44:50.050Z,6.50
2018-08-04T05:47:19.154Z,5.27
2018-08-04T05:49:48.250Z,5.70
2018-08-04T05:52:17.341Z,5.17
2018-08-04T05:54:46.438Z,5.97
2018-08-04T05:57:15.553Z,5.27
2018-08-04T05:59:44.697Z,5.90
2018-08-04T06:02:13.998Z,5.63
2018-08-04T06:04:43.115Z,5.60
2018-08-04T06:07:12.210Z,6.00
2018-08-04T06:09:41.321Z,5.50
2018-08-04T06:12:10.429Z,5.33
2018-08-04T06:14:39.548Z,5.43
2018-08-04T06:17:08.689Z,5.27
2018-08-04T06:19:37.800Z,5.20
2018-08-04T06:22:06.990Z,5.60
2018-08-04T06:24:36.338Z,5.50
2018-08-04T06:27:05.530Z,5.83
2018-08-04T06:29:35.300Z,5.90
2018-08-04T06:32:12.350Z,5.90
2018-08-04T06:34:48.147Z,6.03
2018-08-04T06:37:17.887Z,6.10
2018-08-04T06:39:50.168Z,6.20
2018-08-04T06:42:19.597Z,6.63
2018-08-04T06:44:50.926Z,5.87
2018-08-04T06:47:20.321Z,5.90
2018-08-04T06:49:49.924Z,6.37
2018-08-04T06:52:19.137Z,6.10
2018-08-04T06:54:48.386Z,6.13
2018-08-04T06:57:17.574Z,5.80
2018-08-04T06:59:47.709Z,6.03
2018-08-04T07:02:16.821Z,5.63
2018-08-04T07:04:45.965Z,5.50
2018-08-04T07:07:15.102Z,5.87
2018-08-04T07:09:44.638Z,5.47
2018-08-04T07:12:13.800Z,5.07
2018-08-04T07:14:42.982Z,5.80
2018-08-04T07:17:12.187Z,5.67
2018-08-04T07:19:41.305Z,5.90
2018-08-04T07:22:10.429Z,5.27
2018-08-04T07:24:39.658Z,6.27
2018-08-04T07:27:08.845Z,5.97
2018-08-04T07:29:37.970Z,5.90
2018-08-04T07:32:07.216Z,6.27
2018-08-04T07:34:36.322Z,5.67
2018-08-04T07:37:05.829Z,5.67
2018-08-04T07:39:35.038Z,5.80
2018-08-04T07:42:04.234Z,4.97
2018-08-04T07:44:33.365Z,5.87
2018-08-04T07:47:02.501Z,5.67
2018-08-04T07:49:31.609Z,5.60
2018-08-04T07:52:00.868Z,5.50
2018-08-04T07:54:30.019Z,5.50
2018-08-04T07:56:59.137Z,5.60
2018-08-04T07:59:28.290Z,5.80
2018-08-04T08:01:57.413Z,5.63
2018-08-04T08:04:26.554Z,6.03
2018-08-04T08:06:55.677Z,6.20
2018-08-04T08:09:24.907Z,6.20
2018-08-04T08:11:54.170Z,6.07
2018-08-04T08:14:23.321Z,5.80
2018-08-04T08:16:52.430Z,6.13
2018-08-04T08:19:21.622Z,5.80
2018-08-04T08:21:50.735Z,6.87
2018-08-04T08:24:20.045Z,5.80
2018-08-04T08:26:49.274Z,5.70
2018-08-04T08:29:18.413Z,6.20
2018-08-04T08:31:47.581Z,5.97
2018-08-04T08:34:17.144Z,6.00
2018-08-04T08:36:48.179Z,6.47
2018-08-04T08:39:17.518Z,6.00
2018-08-04T08:41:46.658Z,6.57
2018-08-04T08:44:15.789Z,6.33
2018-08-04T08:46:44.901Z,6.00
2018-08-04T08:49:14.071Z,7.70
2018-08-04T08:51:43.169Z,6.07
2018-08-04T08:54:12.448Z,6.40
2018-08-04T08:56:41.453Z,6.20
2018-08-04T08:59:10.590Z,5.80
2018-08-04T09:01:39.702Z,6.30
2018-08-04T09:04:09.123Z,5.70
2018-08-04T09:06:38.239Z,6.10
2018-08-04T09:09:09.001Z,6.23
2018-08-04T09:11:38.331Z,6.53
2018-08-04T09:14:07.529Z,6.40
2018-08-04T09:16:36.692Z,5.53
2018-08-04T09:19:05.997Z,6.00
2018-08-04T09:21:35.188Z,5.27
2018-08-04T09:24:04.441Z,5.80
2018-08-04T09:26:33.570Z,6.00
2018-08-04T09:29:02.746Z,5.50
2018-08-04T09:31:31.909Z,5.77
2018-08-04T09:34:01.029Z,5.80
2018-08-04T09:36:30.157Z,5.83
2018-08-04T09:39:00.043Z,5.40
2018-08-04T09:41:29.227Z,5.20
2018-08-04T09:43:58.333Z,5.87
2018-08-04T09:46:27.478Z,5.20
2018-08-04T09:48:56.610Z,5.70
2018-08-04T09:51:25.780Z,5.50
2018-08-04T09:53:54.931Z,5.70
2018-08-04T09:56:24.065Z,4.70
2018-08-04T09:58:53.223Z,6.37
2018-08-04T10:01:27.689Z,6.03
2018-08-04T10:03:56.843Z,5.23
2018-08-04T10:06:25.989Z,5.33
2018-08-04T10:08:55.105Z,4.90
2018-08-04T10:11:24.258Z,5.20
2018-08-04T10:13:53.361Z,5.27
2018-08-04T10:16:22.553Z,4.93
2018-08-04T10:18:51.709Z,4.90
2018-08-04T10:21:20.901Z,5.53
2018-08-04T10:23:50.038Z,5.07
2018-08-04T10:26:19.198Z,4.90
2018-08-04T10:28:48.310Z,5.10
2018-08-04T10:31:17.450Z,5.23
2018-08-04T10:33:46.599Z,5.27
2018-08-04T10:36:15.791Z,5.50
2018-08-04T10:38:44.913Z,5.03
2018-08-04T10:41:14.054Z,5.10
2018-08-04T10:43:43.197Z,4.53
2018-08-04T10:46:12.358Z,5.17
2018-08-04T10:48:41.472Z,5.40
2018-08-04T10:51:10.629Z,5.60
2018-08-04T10:53:39.757Z,5.20
2018-08-04T10:56:08.906Z,5.13
2018-08-04T10:58:38.081Z,4.90
2018-08-04T11:01:07.374Z,5.07
2018-08-04T11:03:36.578Z,5.50
2018-08-04T11:06:05.873Z,5.27
2018-08-04T11:08:35.038Z,4.90
2018-08-04T11:11:04.234Z,5.10
2018-08-04T11:13:33.357Z,4.87
2018-08-04T11:16:02.487Z,4.80
2018-08-04T11:18:31.922Z,4.80
2018-08-04T11:21:01.518Z,4.60
2018-08-04T11:23:32.141Z,4.67
2018-08-04T11:26:01.282Z,4.70
2018-08-04T11:28:30.409Z,4.87
2018-08-04T11:30:59.577Z,4.60
2018-08-04T11:33:28.665Z,4.50
2018-08-04T11:35:57.831Z,4.53
2018-08-04T11:38:26.997Z,4.40
2018-08-04T11:40:56.133Z,4.60
2018-08-04T11:43:25.375Z,4.77
2018-08-04T11:45:54.497Z,4.90
2018-08-04T11:48:23.641Z,4.37
2018-08-04T11:50:52.847Z,4.17
2018-08-04T11:53:22.007Z,4.23
2018-08-04T11:55:51.184Z,4.10
2018-08-04T11:58:20.903Z,4.40
2018-08-04T12:00:50.117Z,3.97
2018-08-04T12:03:19.430Z,4.30
2018-08-04T12:05:48.602Z,4.00
2018-08-04T12:08:17.730Z,3.87
2018-08-04T12:10:46.887Z,3.80
2018-08-04T12:13:16.072Z,3.50
2018-08-04T12:15:45.252Z,3.50
2018-08-04T12:18:14.495Z,3.63
2018-08-04T12:20:43.522Z,4.10
2018-08-04T12:23:12.687Z,4.10
2018-08-04T12:25:41.847Z,3.97
2018-08-04T12:28:11.007Z,3.70
2018-08-04T12:30:40.225Z,4.03
2018-08-04T12:33:09.393Z,3.57
2018-08-04T12:35:38.636Z,3.70
2018-08-04T12:38:07.913Z,3.67
2018-08-04T12:40:37.176Z,3.30
2018-08-04T12:43:06.701Z,3.60
2018-08-04T12:45:36.075Z,3.50
2018-08-04T12:48:05.431Z,3.60
2018-08-04T12:50:34.728Z,3.60
2018-08-04T12:53:04.136Z,3.57
2018-08-04T12:55:33.502Z,3.80
2018-08-04T12:58:02.692Z,3.53
2018-08-04T13:00:31.809Z,3.77
2018-08-04T13:03:00.965Z,3.43
2018-08-04T13:05:30.105Z,3.23
2018-08-04T13:07:59.313Z,3.60
2018-08-04T13:10:28.521Z,3.30
2018-08-04T13:12:57.674Z,3.23
2018-08-04T13:15:26.838Z,3.63
2018-08-04T13:17:56.124Z,3.30
2018-08-04T13:20:25.481Z,3.03
2018-08-04T13:22:55.710Z,3.33
2018-08-04T13:25:25.006Z,3.30
2018-08-04T13:27:54.671Z,3.53
2018-08-04T13:30:24.136Z,3.30
2018-08-04T13:32:53.381Z,3.13
2018-08-04T13:35:22.753Z,3.13
2018-08-04T13:37:51.923Z,3.40
2018-08-04T13:40:21.352Z,3.30
2018-08-04T13:42:50.600Z,3.20
2018-08-04T13:45:19.779Z,3.60
2018-08-04T13:47:48.965Z,3.17
2018-08-04T13:50:18.446Z,3.00
2018-08-04T13:52:48.380Z,2.67
2018-08-04T13:55:17.617Z,3.13
2018-08-04T13:57:47.105Z,2.83
2018-08-04T14:00:16.651Z,2.80
2018-08-04T14:02:47.723Z,2.70
2018-08-04T14:05:18.822Z,3.00
2018-08-04T14:07:48.090Z,2.60
2018-08-04T14:10:18.084Z,2.67
2018-08-04T14:12:47.334Z,3.00
2018-08-04T14:15:16.860Z,2.73
2018-08-04T14:17:46.692Z,3.10
2018-08-04T14:20:17.077Z,3.30
2018-08-04T14:22:46.324Z,3.20
2018-08-04T14:25:15.585Z,3.00
2018-08-04T14:27:44.908Z,3.07
2018-08-04T14:30:14.066Z,2.80
2018-08-04T14:32:43.184Z,3.17
2018-08-04T14:35:12.359Z,2.37
2018-08-04T14:37:41.505Z,2.80
2018-08-04T14:40:10.695Z,3.20
2018-08-04T14:42:39.853Z,3.10
2018-08-04T14:45:08.982Z,3.00
2018-08-04T14:47:38.145Z,3.10
2018-08-04T14:50:07.650Z,2.97
2018-08-04T14:52:37.028Z,3.40
2018-08-04T14:55:06.673Z,3.13
2018-08-04T14:57:35.854Z,3.00
2018-08-04T15:00:05.469Z,3.47
2018-08-04T15:02:34.666Z,3.20
2018-08-04T15:05:03.898Z,3.20
2018-08-04T15:07:33.125Z,2.83
2018-08-04T15:10:02.349Z,3.10
2018-08-04T15:12:31.483Z,3.10
2018-08-04T15:15:00.648Z,2.97
2018-08-04T15:17:29.813Z,3.13
2018-08-04T15:19:59.021Z,2.87
2018-08-04T15:22:28.147Z,3.00
2018-08-04T15:24:57.469Z,3.23
2018-08-04T15:27:26.690Z,3.23
2018-08-04T15:29:55.822Z,3.30
2018-08-04T15:32:24.933Z,2.93
2018-08-04T15:34:54.050Z,3.23
2018-08-04T15:37:23.198Z,2.90
2018-08-04T15:39:53.409Z,3.50
2018-08-04T15:42:22.545Z,3.20
2018-08-04T15:44:51.690Z,3.10
2018-08-04T15:47:20.850Z,2.90
2018-08-04T15:49:50.116Z,3.13
2018-08-04T15:52:19.278Z,2.87
2018-08-04T15:54:48.411Z,3.07
2018-08-04T15:57:17.525Z,2.93
2018-08-04T15:59:46.848Z,3.00
2018-08-04T16:02:16.030Z,3.20
2018-08-04T16:04:45.248Z,2.87
2018-08-04T16:07:14.521Z,2.67
2018-08-04T16:09:43.725Z,3.00
2018-08-04T16:12:12.921Z,2.80
2018-08-04T16:14:42.084Z,3.20
2018-08-04T16:17:11.248Z,3.33
2018-08-04T16:19:40.577Z,3.50
2018-08-04T16:22:09.903Z,3.50
2018-08-04T16:24:39.702Z,3.10
2018-08-04T16:27:09.097Z,3.30
2018-08-04T16:29:38.506Z,3.50
2018-08-04T16:32:07.862Z,3.20
2018-08-04T16:34:37.247Z,3.37
2018-08-04T16:37:06.741Z,3.33
2018-08-04T16:39:36.388Z,3.17
2018-08-04T16:42:05.848Z,2.80
2018-08-04T16:44:35.474Z,3.20
2018-08-04T16:47:05.196Z,3.13
2018-08-04T16:49:35.378Z,3.20
2018-08-04T16:52:05.029Z,2.97
2018-08-04T16:54:35.340Z,3.17
2018-08-04T16:57:05.776Z,3.00
2018-08-04T16:59:36.192Z,3.30
2018-08-04T17:02:06.177Z,3.00
2018-08-04T17:04:38.560Z,3.10
2018-08-04T17:07:08.567Z,3.20
2018-08-04T17:09:38.597Z,3.37
2018-08-04T17:12:08.211Z,3.13
2018-08-04T17:14:37.605Z,3.20
2018-08-04T17:17:07.633Z,3.20
2018-08-04T17:19:38.136Z,3.53
2018-08-04T17:22:08.002Z,3.03
2018-08-04T17:24:37.387Z,2.93
2018-08-04T17:27:07.216Z,3.03
2018-08-04T17:29:37.119Z,4.47
2018-08-04T17:32:07.956Z,3.00
2018-08-04T17:34:37.252Z,3.00
2018-08-04T17:37:07.070Z,3.00
2018-08-04T17:39:36.344Z,2.63
2018-08-04T17:42:05.838Z,2.77
2018-08-04T17:44:35.131Z,4.03
2018-08-04T17:47:04.373Z,3.10
2018-08-04T17:49:33.605Z,3.00
2018-08-04T17:52:02.944Z,3.00
2018-08-04T17:54:32.228Z,3.13
2018-08-04T17:57:01.387Z,3.10
2018-08-04T17:59:30.490Z,3.07
2018-08-04T18:02:00.001Z,3.13
2018-08-04T18:04:29.111Z,3.23
2018-08-04T18:06:58.286Z,2.83
2018-08-04T18:09:27.393Z,2.93
2018-08-04T18:11:56.529Z,2.47
2018-08-04T18:14:25.634Z,2.77
2018-08-04T18:16:54.797Z,2.63
2018-08-04T18:19:23.897Z,2.97
2018-08-04T18:21:53.091Z,2.67
2018-08-04T18:24:22.246Z,2.83
2018-08-04T18:26:51.498Z,2.77
2018-08-04T18:29:20.639Z,3.30
2018-08-04T18:31:50.833Z,3.23
2018-08-04T18:34:20.011Z,2.90
2018-08-04T18:36:49.181Z,3.30
2018-08-04T18:39:18.303Z,2.60
2018-08-04T18:41:47.466Z,2.90
2018-08-04T18:44:16.626Z,2.83
2018-08-04T18:46:45.803Z,2.77
2018-08-04T18:49:15.003Z,3.20
2018-08-04T18:51:44.219Z,2.73
2018-08-04T18:54:13.402Z,2.53
2018-08-04T18:56:42.657Z,2.53
2018-08-04T18:59:11.937Z,3.10
2018-08-04T19:01:41.107Z,2.90
2018-08-04T19:04:10.234Z,3.07
2018-08-04T19:06:39.440Z,3.20
2018-08-04T19:09:09.725Z,2.73
2018-08-04T19:11:38.867Z,3.23
2018-08-04T19:14:08.504Z,3.03
2018-08-04T19:16:37.641Z,3.23
2018-08-04T19:19:06.841Z,3.30
2018-08-04T19:21:35.960Z,3.30
2018-08-04T19:24:05.098Z,3.37
2018-08-04T19:26:34.258Z,2.93
2018-08-04T19:29:03.442Z,3.60
2018-08-04T19:31:32.569Z,3.20
2018-08-04T19:34:01.713Z,2.80
2018-08-04T19:36:30.857Z,3.17
2018-08-04T19:39:00.018Z,3.00
2018-08-04T19:41:29.145Z,3.43
2018-08-04T19:43:58.327Z,3.50
2018-08-04T19:46:27.403Z,3.23
2018-08-04T19:48:56.521Z,3.07
2018-08-04T19:51:25.658Z,3.37
2018-08-04T19:53:54.790Z,3.57
2018-08-04T19:56:23.910Z,3.40
2018-08-04T19:58:53.201Z,3.50
2018-08-04T20:01:22.406Z,3.50
2018-08-04T20:03:51.547Z,3.43
2018-08-04T20:06:20.657Z,3.47
2018-08-04T20:08:55.450Z,3.33
2018-08-04T20:11:24.595Z,3.47
2018-08-04T20:13:53.710Z,3.20
2018-08-04T20:16:22.841Z,3.50
2018-08-04T20:18:52.378Z,3.57
2018-08-04T20:21:21.530Z,2.93
2018-08-04T20:23:50.646Z,3.63
2018-08-04T20:26:19.801Z,3.17
2018-08-04T20:28:48.953Z,3.73
2018-08-04T20:31:18.217Z,4.30
2018-08-04T20:33:47.322Z,4.23
2018-08-04T20:36:16.482Z,3.70
2018-08-04T20:38:45.739Z,3.40
2018-08-04T20:41:14.938Z,3.40
2018-08-04T20:43:47.501Z,3.37
2018-08-04T20:46:16.697Z,3.67
2018-08-04T20:48:45.893Z,4.20
2018-08-04T20:51:15.124Z,3.93
2018-08-04T20:53:44.307Z,3.70
2018-08-04T20:56:13.553Z,3.37
2018-08-04T20:58:42.781Z,3.80
2018-08-04T21:01:23.036Z,3.80
2018-08-04T21:03:52.178Z,3.80
2018-08-04T21:06:21.311Z,4.00
2018-08-04T21:08:50.448Z,3.80
2018-08-04T21:11:24.935Z,3.60
2018-08-04T21:13:54.061Z,3.77
2018-08-04T21:16:23.210Z,3.60
2018-08-04T21:18:52.507Z,3.50
2018-08-04T21:21:21.623Z,3.77
2018-08-04T21:23:50.738Z,3.70
2018-08-04T21:26:19.987Z,3.77
2018-08-04T21:28:49.111Z,4.10
2018-08-04T21:31:18.265Z,3.60
2018-08-04T21:33:47.435Z,3.43
2018-08-04T21:36:16.595Z,3.60
2018-08-04T21:38:45.769Z,4.10
2018-08-04T21:41:14.998Z,4.00
2018-08-04T21:43:44.128Z,3.50
2018-08-04T21:46:13.322Z,3.60
2018-08-04T21:48:42.526Z,3.80
2018-08-04T21:51:11.727Z,3.80
2018-08-04T21:53:40.843Z,3.73
2018-08-04T21:56:09.988Z,3.70
2018-08-04T21:58:39.117Z,3.80
2018-08-04T22:01:12.309Z,3.80
2018-08-04T22:03:42.678Z,3.60
2018-08-04T22:06:12.136Z,3.70
2018-08-04T22:08:52.495Z,3.80
2018-08-04T22:11:21.710Z,3.90
2018-08-04T22:13:50.809Z,4.00
2018-08-04T22:16:19.965Z,3.47
2018-08-04T22:18:49.114Z,4.07
2018-08-04T22:21:18.238Z,3.53
2018-08-04T22:23:47.562Z,3.70
2018-08-04T22:26:17.118Z,4.00
2018-08-04T22:28:47.301Z,3.27
2018-08-04T22:31:16.422Z,3.60
2018-08-04T22:33:45.586Z,3.93
2018-08-04T22:36:14.703Z,3.57
2018-08-04T22:38:43.855Z,3.60
2018-08-04T22:41:13.067Z,3.43
2018-08-04T22:43:42.147Z,3.90
2018-08-04T22:46:14.737Z,3.57
2018-08-04T22:48:46.106Z,3.50
2018-08-04T22:51:19.490Z,3.70
2018-08-04T22:53:48.847Z,3.50
2018-08-04T22:56:17.977Z,3.80
2018-08-04T22:58:47.105Z,3.53
2018-08-04T23:01:16.289Z,3.80
2018-08-04T23:06:14.551Z,3.90
2018-08-04T23:08:43.687Z,3.57
2018-08-04T23:11:12.805Z,3.53
2018-08-04T23:13:41.946Z,3.50
2018-08-04T23:16:11.079Z,3.40
2018-08-04T23:18:40.218Z,3.40
2018-08-04T23:21:09.743Z,3.20
2018-08-04T23:23:39.047Z,3.03
2018-08-04T23:26:08.177Z,3.63
2018-08-04T23:28:37.293Z,3.80
2018-08-04T23:31:07.465Z,3.47
2018-08-04T23:33:36.625Z,3.70
2018-08-04T23:36:05.733Z,3.60
2018-08-04T23:38:34.849Z,3.73
2018-08-04T23:41:05.010Z,3.50
2018-08-04T23:43:34.153Z,3.07
2018-08-04T23:46:03.307Z,3.90
2018-08-04T23:48:32.408Z,3.53
2018-08-04T23:51:01.525Z,3.57
2018-08-04T23:53:30.621Z,4.10
2018-08-04T23:55:59.810Z,4.10
2018-08-04T23:58:28.965Z,4.07
